sensor_id;sensor_type;location;lat;lon;timestamp;temperature;humidity
6540;DHT22;50344;51.142;16.892;2023-11-19T00:00:19;21.50;49.70
6540;DHT22;50344;51.142;16.892;2023-11-19T00:02:45;21.60;49.90
6540;DHT22;50344;51.142;16.892;2023-11-19T00:05:10;21.60;49.80
6540;DHT22;50344;51.142;16.892;2023-11-19T00:07:39;21.60;49.60
6540;DHT22;50344;51.142;16.892;2023-11-19T00:10:14;21.60;50.00
6540;DHT22;50344;51.142;16.892;2023-11-19T00:12:41;21.60;49.30
6540;DHT22;50344;51.142;16.892;2023-11-19T00:15:07;21.60;50.00
6540;DHT22;50344;51.142;16.892;2023-11-19T00:17:40;21.60;49.70
6540;DHT22;50344;51.142;16.892;2023-11-19T00:20:10;21.60;50.10
6540;DHT22;50344;51.142;16.892;2023-11-19T00:22:36;21.70;50.10
6540;DHT22;50344;51.142;16.892;2023-11-19T00:25:01;21.60;50.00
6540;DHT22;50344;51.142;16.892;2023-11-19T00:27:27;21.70;49.90
6540;DHT22;50344;51.142;16.892;2023-11-19T00:29:53;21.70;50.00
6540;DHT22;50344;51.142;16.892;2023-11-19T00:32:18;21.70;50.00
6540;DHT22;50344;51.142;16.892;2023-11-19T00:34:44;21.60;49.80
6540;DHT22;50344;51.142;16.892;2023-11-19T00:37:09;21.60;49.80
6540;DHT22;50344;51.142;16.892;2023-11-19T00:39:35;21.60;49.60
6540;DHT22;50344;51.142;16.892;2023-11-19T00:42:01;21.60;49.90
6540;DHT22;50344;51.142;16.892;2023-11-19T00:44:26;21.60;49.90
6540;DHT22;50344;51.142;16.892;2023-11-19T00:46:52;21.60;49.80
6540;DHT22;50344;51.142;16.892;2023-11-19T00:49:17;21.60;49.90
6540;DHT22;50344;51.142;16.892;2023-11-19T00:51:44;21.60;49.50
6540;DHT22;50344;51.142;16.892;2023-11-19T00:54:10;21.60;49.80
6540;DHT22;50344;51.142;16.892;2023-11-19T00:56:36;21.60;49.80
6540;DHT22;50344;51.142;16.892;2023-11-19T00:59:02;21.60;49.90
6540;DHT22;50344;51.142;16.892;2023-11-19T01:01:29;21.60;49.90
6540;DHT22;50344;51.142;16.892;2023-11-19T01:03:55;21.60;50.00
6540;DHT22;50344;51.142;16.892;2023-11-19T01:06:28;21.60;50.00
6540;DHT22;50344;51.142;16.892;2023-11-19T01:08:54;21.60;49.40
6540;DHT22;50344;51.142;16.892;2023-11-19T01:11:21;21.70;49.80
6540;DHT22;50344;51.142;16.892;2023-11-19T01:13:46;21.70;50.00
6540;DHT22;50344;51.142;16.892;2023-11-19T01:16:12;21.70;50.00
6540;DHT22;50344;51.142;16.892;2023-11-19T01:18:38;21.70;50.10
6540;DHT22;50344;51.142;16.892;2023-11-19T01:21:04;21.70;50.30
6540;DHT22;50344;51.142;16.892;2023-11-19T01:23:29;21.70;49.90
6540;DHT22;50344;51.142;16.892;2023-11-19T01:25:55;21.70;50.20
6540;DHT22;50344;51.142;16.892;2023-11-19T01:28:21;21.70;50.10
6540;DHT22;50344;51.142;16.892;2023-11-19T01:30:46;21.70;50.20
6540;DHT22;50344;51.142;16.892;2023-11-19T01:33:12;21.60;50.10
6540;DHT22;50344;51.142;16.892;2023-11-19T01:35:37;21.60;50.10
6540;DHT22;50344;51.142;16.892;2023-11-19T01:38:03;21.60;50.30
6540;DHT22;50344;51.142;16.892;2023-11-19T01:40:28;21.70;50.20
6540;DHT22;50344;51.142;16.892;2023-11-19T01:42:54;21.60;50.10
6540;DHT22;50344;51.142;16.892;2023-11-19T01:45:29;21.60;50.10
6540;DHT22;50344;51.142;16.892;2023-11-19T01:47:56;21.60;50.10
6540;DHT22;50344;51.142;16.892;2023-11-19T01:50:22;21.60;50.30
6540;DHT22;50344;51.142;16.892;2023-11-19T01:52:48;21.60;50.30
6540;DHT22;50344;51.142;16.892;2023-11-19T01:55:13;21.60;50.20
6540;DHT22;50344;51.142;16.892;2023-11-19T01:57:39;21.60;50.20
6540;DHT22;50344;51.142;16.892;2023-11-19T02:00:06;21.60;50.20
6540;DHT22;50344;51.142;16.892;2023-11-19T02:02:36;21.70;50.10
6540;DHT22;50344;51.142;16.892;2023-11-19T02:05:02;21.70;50.30
6540;DHT22;50344;51.142;16.892;2023-11-19T02:07:28;21.60;50.10
6540;DHT22;50344;51.142;16.892;2023-11-19T02:09:54;21.70;51.00
6540;DHT22;50344;51.142;16.892;2023-11-19T02:12:19;21.70;50.30
6540;DHT22;50344;51.142;16.892;2023-11-19T02:14:45;21.70;50.30
6540;DHT22;50344;51.142;16.892;2023-11-19T02:17:27;21.60;50.20
6540;DHT22;50344;51.142;16.892;2023-11-19T02:19:52;21.70;49.50
6540;DHT22;50344;51.142;16.892;2023-11-19T02:22:18;21.70;50.30
6540;DHT22;50344;51.142;16.892;2023-11-19T02:24:44;21.70;50.40
6540;DHT22;50344;51.142;16.892;2023-11-19T02:27:16;21.70;50.30
6540;DHT22;50344;51.142;16.892;2023-11-19T02:29:44;21.60;50.20
6540;DHT22;50344;51.142;16.892;2023-11-19T02:32:09;21.70;50.40
6540;DHT22;50344;51.142;16.892;2023-11-19T02:34:35;21.60;50.40
6540;DHT22;50344;51.142;16.892;2023-11-19T02:37:00;21.70;50.30
6540;DHT22;50344;51.142;16.892;2023-11-19T02:39:26;21.70;50.40
6540;DHT22;50344;51.142;16.892;2023-11-19T02:41:51;21.70;50.40
6540;DHT22;50344;51.142;16.892;2023-11-19T02:44:18;21.60;50.30
6540;DHT22;50344;51.142;16.892;2023-11-19T02:46:43;21.60;50.40
6540;DHT22;50344;51.142;16.892;2023-11-19T02:49:09;21.70;50.30
6540;DHT22;50344;51.142;16.892;2023-11-19T02:51:35;21.70;50.30
6540;DHT22;50344;51.142;16.892;2023-11-19T02:54:01;21.70;50.30
6540;DHT22;50344;51.142;16.892;2023-11-19T02:56:28;21.70;50.30
6540;DHT22;50344;51.142;16.892;2023-11-19T02:58:59;21.70;50.20
6540;DHT22;50344;51.142;16.892;2023-11-19T03:01:28;21.70;50.30
6540;DHT22;50344;51.142;16.892;2023-11-19T03:03:59;21.60;49.90
6540;DHT22;50344;51.142;16.892;2023-11-19T03:06:27;21.60;50.30
6540;DHT22;50344;51.142;16.892;2023-11-19T03:08:55;21.60;50.20
6540;DHT22;50344;51.142;16.892;2023-11-19T03:11:21;21.60;50.10
6540;DHT22;50344;51.142;16.892;2023-11-19T03:13:46;21.60;50.30
6540;DHT22;50344;51.142;16.892;2023-11-19T03:16:12;21.60;50.30
6540;DHT22;50344;51.142;16.892;2023-11-19T03:18:38;21.60;50.20
6540;DHT22;50344;51.142;16.892;2023-11-19T03:21:05;21.60;50.30
6540;DHT22;50344;51.142;16.892;2023-11-19T03:23:31;21.50;50.10
6540;DHT22;50344;51.142;16.892;2023-11-19T03:25:57;21.50;50.40
6540;DHT22;50344;51.142;16.892;2023-11-19T03:28:22;21.50;50.40
6540;DHT22;50344;51.142;16.892;2023-11-19T03:30:48;21.60;50.40
6540;DHT22;50344;51.142;16.892;2023-11-19T03:33:13;21.60;50.20
6540;DHT22;50344;51.142;16.892;2023-11-19T03:35:39;21.60;50.10
6540;DHT22;50344;51.142;16.892;2023-11-19T03:38:06;21.50;50.20
6540;DHT22;50344;51.142;16.892;2023-11-19T03:40:32;21.50;50.30
6540;DHT22;50344;51.142;16.892;2023-11-19T03:42:57;21.40;50.20
6540;DHT22;50344;51.142;16.892;2023-11-19T03:45:25;21.50;50.30
6540;DHT22;50344;51.142;16.892;2023-11-19T03:47:51;21.50;50.30
6540;DHT22;50344;51.142;16.892;2023-11-19T03:50:16;21.50;50.50
6540;DHT22;50344;51.142;16.892;2023-11-19T03:52:43;21.50;50.30
6540;DHT22;50344;51.142;16.892;2023-11-19T03:55:08;21.50;51.10
6540;DHT22;50344;51.142;16.892;2023-11-19T03:57:34;21.50;50.30
6540;DHT22;50344;51.142;16.892;2023-11-19T04:00:00;21.50;50.20
6540;DHT22;50344;51.142;16.892;2023-11-19T04:02:28;21.50;50.30
6540;DHT22;50344;51.142;16.892;2023-11-19T04:04:54;21.50;50.50
6540;DHT22;50344;51.142;16.892;2023-11-19T04:07:20;21.40;50.20
6540;DHT22;50344;51.142;16.892;2023-11-19T04:09:46;21.50;50.20
6540;DHT22;50344;51.142;16.892;2023-11-19T04:12:12;21.50;50.20
6540;DHT22;50344;51.142;16.892;2023-11-19T04:14:37;21.50;50.20
6540;DHT22;50344;51.142;16.892;2023-11-19T04:17:03;21.50;50.20
6540;DHT22;50344;51.142;16.892;2023-11-19T04:19:28;21.50;50.00
6540;DHT22;50344;51.142;16.892;2023-11-19T04:21:54;21.50;50.10
6540;DHT22;50344;51.142;16.892;2023-11-19T04:24:19;21.50;50.40
6540;DHT22;50344;51.142;16.892;2023-11-19T04:26:45;21.50;50.20
6540;DHT22;50344;51.142;16.892;2023-11-19T04:29:11;21.50;50.30
6540;DHT22;50344;51.142;16.892;2023-11-19T04:31:36;21.50;50.30
6540;DHT22;50344;51.142;16.892;2023-11-19T04:34:02;21.50;50.20
6540;DHT22;50344;51.142;16.892;2023-11-19T04:36:28;21.50;50.20
6540;DHT22;50344;51.142;16.892;2023-11-19T04:38:55;21.50;50.10
6540;DHT22;50344;51.142;16.892;2023-11-19T04:41:20;21.40;50.20
6540;DHT22;50344;51.142;16.892;2023-11-19T04:43:46;21.50;50.20
6540;DHT22;50344;51.142;16.892;2023-11-19T04:46:12;21.50;50.30
6540;DHT22;50344;51.142;16.892;2023-11-19T04:48:37;21.40;50.20
6540;DHT22;50344;51.142;16.892;2023-11-19T04:51:06;21.40;50.20
6540;DHT22;50344;51.142;16.892;2023-11-19T04:53:31;21.40;49.40
6540;DHT22;50344;51.142;16.892;2023-11-19T04:55:57;21.50;50.30
6540;DHT22;50344;51.142;16.892;2023-11-19T04:58:22;21.50;50.20
6540;DHT22;50344;51.142;16.892;2023-11-19T05:00:48;21.50;50.20
6540;DHT22;50344;51.142;16.892;2023-11-19T05:03:13;21.40;50.10
6540;DHT22;50344;51.142;16.892;2023-11-19T05:05:39;21.40;50.10
6540;DHT22;50344;51.142;16.892;2023-11-19T05:08:04;21.50;50.10
6540;DHT22;50344;51.142;16.892;2023-11-19T05:10:30;21.40;50.10
6540;DHT22;50344;51.142;16.892;2023-11-19T05:12:56;21.40;50.20
6540;DHT22;50344;51.142;16.892;2023-11-19T05:15:22;21.50;50.00
6540;DHT22;50344;51.142;16.892;2023-11-19T05:17:47;21.50;50.00
6540;DHT22;50344;51.142;16.892;2023-11-19T05:20:13;21.50;49.90
6540;DHT22;50344;51.142;16.892;2023-11-19T05:22:39;21.40;50.10
6540;DHT22;50344;51.142;16.892;2023-11-19T05:25:05;21.50;50.10
6540;DHT22;50344;51.142;16.892;2023-11-19T05:27:31;21.40;50.10
6540;DHT22;50344;51.142;16.892;2023-11-19T05:29:57;21.40;50.10
6540;DHT22;50344;51.142;16.892;2023-11-19T05:32:22;21.40;50.10
6540;DHT22;50344;51.142;16.892;2023-11-19T05:34:48;21.40;50.10
6540;DHT22;50344;51.142;16.892;2023-11-19T05:37:13;21.40;50.10
6540;DHT22;50344;51.142;16.892;2023-11-19T05:39:39;21.50;50.10
6540;DHT22;50344;51.142;16.892;2023-11-19T05:42:05;21.40;50.10
6540;DHT22;50344;51.142;16.892;2023-11-19T05:44:30;21.40;50.00
6540;DHT22;50344;51.142;16.892;2023-11-19T05:46:56;21.50;50.10
6540;DHT22;50344;51.142;16.892;2023-11-19T05:49:21;21.40;50.10
6540;DHT22;50344;51.142;16.892;2023-11-19T05:51:47;21.40;50.00
6540;DHT22;50344;51.142;16.892;2023-11-19T05:54:13;21.40;50.20
6540;DHT22;50344;51.142;16.892;2023-11-19T05:56:39;21.40;50.10
6540;DHT22;50344;51.142;16.892;2023-11-19T05:59:04;21.40;50.10
6540;DHT22;50344;51.142;16.892;2023-11-19T06:01:34;21.40;50.10
6540;DHT22;50344;51.142;16.892;2023-11-19T06:03:59;21.40;50.00
6540;DHT22;50344;51.142;16.892;2023-11-19T06:06:26;21.40;50.80
6540;DHT22;50344;51.142;16.892;2023-11-19T06:08:52;21.40;50.10
6540;DHT22;50344;51.142;16.892;2023-11-19T06:11:17;21.30;50.00
6540;DHT22;50344;51.142;16.892;2023-11-19T06:13:46;21.40;50.00
6540;DHT22;50344;51.142;16.892;2023-11-19T06:16:13;21.50;50.00
6540;DHT22;50344;51.142;16.892;2023-11-19T06:18:38;21.50;50.00
6540;DHT22;50344;51.142;16.892;2023-11-19T06:21:04;21.50;49.50
6540;DHT22;50344;51.142;16.892;2023-11-19T06:23:31;21.50;49.70
6540;DHT22;50344;51.142;16.892;2023-11-19T06:25:56;21.50;49.90
6540;DHT22;50344;51.142;16.892;2023-11-19T06:28:22;21.50;49.90
6540;DHT22;50344;51.142;16.892;2023-11-19T06:30:47;21.50;50.00
6540;DHT22;50344;51.142;16.892;2023-11-19T06:33:13;21.50;50.00
6540;DHT22;50344;51.142;16.892;2023-11-19T06:35:39;21.40;50.00
6540;DHT22;50344;51.142;16.892;2023-11-19T06:38:05;21.40;50.00
6540;DHT22;50344;51.142;16.892;2023-11-19T06:40:30;21.40;50.10
6540;DHT22;50344;51.142;16.892;2023-11-19T06:42:56;21.40;50.10
6540;DHT22;50344;51.142;16.892;2023-11-19T06:45:22;21.40;50.00
6540;DHT22;50344;51.142;16.892;2023-11-19T06:47:47;21.40;50.10
6540;DHT22;50344;51.142;16.892;2023-11-19T06:50:13;21.40;50.10
6540;DHT22;50344;51.142;16.892;2023-11-19T06:52:40;21.40;50.10
6540;DHT22;50344;51.142;16.892;2023-11-19T06:55:06;21.40;50.20
6540;DHT22;50344;51.142;16.892;2023-11-19T06:57:31;21.40;50.10
6540;DHT22;50344;51.142;16.892;2023-11-19T06:59:57;21.40;50.30
6540;DHT22;50344;51.142;16.892;2023-11-19T07:02:23;21.40;50.10
6540;DHT22;50344;51.142;16.892;2023-11-19T07:04:49;21.40;50.20
6540;DHT22;50344;51.142;16.892;2023-11-19T07:07:14;21.40;50.30
6540;DHT22;50344;51.142;16.892;2023-11-19T07:09:40;21.40;50.00
6540;DHT22;50344;51.142;16.892;2023-11-19T07:12:06;21.40;50.10
6540;DHT22;50344;51.142;16.892;2023-11-19T07:14:31;21.40;50.30
6540;DHT22;50344;51.142;16.892;2023-11-19T07:16:57;21.40;50.30
6540;DHT22;50344;51.142;16.892;2023-11-19T07:19:22;21.40;50.30
6540;DHT22;50344;51.142;16.892;2023-11-19T07:21:48;21.50;50.30
6540;DHT22;50344;51.142;16.892;2023-11-19T07:24:14;21.50;50.20
6540;DHT22;50344;51.142;16.892;2023-11-19T07:26:43;21.50;50.20
6540;DHT22;50344;51.142;16.892;2023-11-19T07:29:09;21.50;49.70
6540;DHT22;50344;51.142;16.892;2023-11-19T07:31:34;21.50;50.30
6540;DHT22;50344;51.142;16.892;2023-11-19T07:34:00;21.50;50.40
6540;DHT22;50344;51.142;16.892;2023-11-19T07:36:26;21.50;50.20
6540;DHT22;50344;51.142;16.892;2023-11-19T07:38:51;21.50;50.30
6540;DHT22;50344;51.142;16.892;2023-11-19T07:41:17;21.50;50.30
6540;DHT22;50344;51.142;16.892;2023-11-19T07:43:45;21.50;50.30
6540;DHT22;50344;51.142;16.892;2023-11-19T07:46:12;21.50;49.60
6540;DHT22;50344;51.142;16.892;2023-11-19T07:48:38;21.60;50.50
6540;DHT22;50344;51.142;16.892;2023-11-19T07:51:04;21.50;50.20
6540;DHT22;50344;51.142;16.892;2023-11-19T07:53:29;21.50;50.60
6540;DHT22;50344;51.142;16.892;2023-11-19T07:55:55;21.50;50.50
6540;DHT22;50344;51.142;16.892;2023-11-19T07:58:20;21.60;50.40
6540;DHT22;50344;51.142;16.892;2023-11-19T08:00:46;21.60;50.30
6540;DHT22;50344;51.142;16.892;2023-11-19T08:03:11;21.60;50.40
6540;DHT22;50344;51.142;16.892;2023-11-19T08:05:37;21.60;50.30
6540;DHT22;50344;51.142;16.892;2023-11-19T08:08:03;21.50;50.30
6540;DHT22;50344;51.142;16.892;2023-11-19T08:10:28;21.50;50.20
6540;DHT22;50344;51.142;16.892;2023-11-19T08:12:54;21.50;50.40
6540;DHT22;50344;51.142;16.892;2023-11-19T08:15:20;21.50;50.50
6540;DHT22;50344;51.142;16.892;2023-11-19T08:17:45;21.70;50.50
6540;DHT22;50344;51.142;16.892;2023-11-19T08:20:11;21.50;50.10
6540;DHT22;50344;51.142;16.892;2023-11-19T08:22:37;21.50;50.00
6540;DHT22;50344;51.142;16.892;2023-11-19T08:25:04;21.50;50.10
6540;DHT22;50344;51.142;16.892;2023-11-19T08:27:29;21.50;50.00
6540;DHT22;50344;51.142;16.892;2023-11-19T08:29:55;21.50;50.10
6540;DHT22;50344;51.142;16.892;2023-11-19T08:32:24;21.50;49.70
6540;DHT22;50344;51.142;16.892;2023-11-19T08:34:50;21.40;50.00
6540;DHT22;50344;51.142;16.892;2023-11-19T08:37:15;21.40;50.10
6540;DHT22;50344;51.142;16.892;2023-11-19T08:39:43;21.40;50.00
6540;DHT22;50344;51.142;16.892;2023-11-19T08:42:08;21.40;49.90
6540;DHT22;50344;51.142;16.892;2023-11-19T08:44:34;21.40;49.80
6540;DHT22;50344;51.142;16.892;2023-11-19T08:46:59;21.50;49.70
6540;DHT22;50344;51.142;16.892;2023-11-19T08:49:25;21.50;49.70
6540;DHT22;50344;51.142;16.892;2023-11-19T08:51:51;21.70;49.80
6540;DHT22;50344;51.142;16.892;2023-11-19T08:54:16;21.50;49.70
6540;DHT22;50344;51.142;16.892;2023-11-19T08:56:42;21.60;49.70
6540;DHT22;50344;51.142;16.892;2023-11-19T08:59:07;21.30;49.60
6540;DHT22;50344;51.142;16.892;2023-11-19T09:01:34;21.50;49.80
6540;DHT22;50344;51.142;16.892;2023-11-19T09:03:59;21.50;49.70
6540;DHT22;50344;51.142;16.892;2023-11-19T09:06:25;21.50;49.80
6540;DHT22;50344;51.142;16.892;2023-11-19T09:08:50;21.50;50.00
6540;DHT22;50344;51.142;16.892;2023-11-19T09:11:16;21.50;49.90
6540;DHT22;50344;51.142;16.892;2023-11-19T09:13:42;21.40;49.60
6540;DHT22;50344;51.142;16.892;2023-11-19T09:16:07;21.50;49.50
6540;DHT22;50344;51.142;16.892;2023-11-19T09:18:34;21.40;49.30
6540;DHT22;50344;51.142;16.892;2023-11-19T09:21:00;21.50;49.50
6540;DHT22;50344;51.142;16.892;2023-11-19T09:23:25;21.50;49.70
6540;DHT22;50344;51.142;16.892;2023-11-19T09:25:53;21.50;49.30
6540;DHT22;50344;51.142;16.892;2023-11-19T09:28:18;21.50;49.30
6540;DHT22;50344;51.142;16.892;2023-11-19T09:30:44;21.40;49.20
6540;DHT22;50344;51.142;16.892;2023-11-19T09:33:10;21.50;49.30
6540;DHT22;50344;51.142;16.892;2023-11-19T09:35:35;21.50;49.30
6540;DHT22;50344;51.142;16.892;2023-11-19T09:38:01;21.50;49.20
6540;DHT22;50344;51.142;16.892;2023-11-19T09:40:27;21.50;48.80
6540;DHT22;50344;51.142;16.892;2023-11-19T09:42:53;21.50;48.90
6540;DHT22;50344;51.142;16.892;2023-11-19T09:45:20;21.50;48.80
6540;DHT22;50344;51.142;16.892;2023-11-19T09:47:46;21.50;48.90
6540;DHT22;50344;51.142;16.892;2023-11-19T09:50:21;21.50;48.90
6540;DHT22;50344;51.142;16.892;2023-11-19T09:52:47;21.40;48.90
6540;DHT22;50344;51.142;16.892;2023-11-19T09:55:13;21.50;48.70
6540;DHT22;50344;51.142;16.892;2023-11-19T09:57:39;21.50;48.50
6540;DHT22;50344;51.142;16.892;2023-11-19T10:00:05;21.50;48.50
6540;DHT22;50344;51.142;16.892;2023-11-19T10:02:33;21.40;48.20
6540;DHT22;50344;51.142;16.892;2023-11-19T10:04:59;21.50;48.40
6540;DHT22;50344;51.142;16.892;2023-11-19T10:07:24;21.50;48.30
6540;DHT22;50344;51.142;16.892;2023-11-19T10:09:50;21.50;48.30
6540;DHT22;50344;51.142;16.892;2023-11-19T10:12:16;21.40;48.00
6540;DHT22;50344;51.142;16.892;2023-11-19T10:14:42;21.40;48.00
6540;DHT22;50344;51.142;16.892;2023-11-19T10:17:08;21.50;48.20
6540;DHT22;50344;51.142;16.892;2023-11-19T10:19:34;21.50;48.30
6540;DHT22;50344;51.142;16.892;2023-11-19T10:22:04;21.50;48.40
6540;DHT22;50344;51.142;16.892;2023-11-19T10:24:32;21.40;47.60
6540;DHT22;50344;51.142;16.892;2023-11-19T10:27:02;21.40;47.60
6540;DHT22;50344;51.142;16.892;2023-11-19T10:29:30;21.50;47.80
6540;DHT22;50344;51.142;16.892;2023-11-19T10:31:56;21.50;48.60
6540;DHT22;50344;51.142;16.892;2023-11-19T10:34:24;21.50;48.60
6540;DHT22;50344;51.142;16.892;2023-11-19T10:36:49;21.50;48.60
6540;DHT22;50344;51.142;16.892;2023-11-19T10:39:15;21.50;48.70
6540;DHT22;50344;51.142;16.892;2023-11-19T10:41:41;21.40;48.50
6540;DHT22;50344;51.142;16.892;2023-11-19T10:44:06;21.50;48.70
6540;DHT22;50344;51.142;16.892;2023-11-19T10:46:42;21.50;48.80
6540;DHT22;50344;51.142;16.892;2023-11-19T10:49:09;21.50;48.00
6540;DHT22;50344;51.142;16.892;2023-11-19T10:51:34;21.50;48.70
6540;DHT22;50344;51.142;16.892;2023-11-19T10:54:04;21.50;48.90
6540;DHT22;50344;51.142;16.892;2023-11-19T10:56:34;21.50;48.10
6540;DHT22;50344;51.142;16.892;2023-11-19T10:59:00;21.50;48.10
6540;DHT22;50344;51.142;16.892;2023-11-19T11:01:32;21.50;48.90
6540;DHT22;50344;51.142;16.892;2023-11-19T11:04:00;21.50;48.30
6540;DHT22;50344;51.142;16.892;2023-11-19T11:06:27;20.90;48.40
6540;DHT22;50344;51.142;16.892;2023-11-19T11:08:53;21.50;49.00
6540;DHT22;50344;51.142;16.892;2023-11-19T11:11:19;21.50;49.20
6540;DHT22;50344;51.142;16.892;2023-11-19T11:13:49;21.50;49.10
6540;DHT22;50344;51.142;16.892;2023-11-19T11:16:18;21.50;49.00
6540;DHT22;50344;51.142;16.892;2023-11-19T11:18:44;21.50;49.10
6540;DHT22;50344;51.142;16.892;2023-11-19T11:21:11;21.60;49.30
6540;DHT22;50344;51.142;16.892;2023-11-19T11:34:41;21.50;49.50
6540;DHT22;50344;51.142;16.892;2023-11-19T11:39:57;21.50;48.80
6540;DHT22;50344;51.142;16.892;2023-11-19T11:50:10;21.60;51.90
6540;DHT22;50344;51.142;16.892;2023-11-19T11:56:02;21.60;51.90
6540;DHT22;50344;51.142;16.892;2023-11-19T11:58:09;21.50;51.80
6540;DHT22;50344;51.142;16.892;2023-11-19T12:00:38;21.50;52.20
6540;DHT22;50344;51.142;16.892;2023-11-19T12:03:05;21.60;51.90
6540;DHT22;50344;51.142;16.892;2023-11-19T12:05:31;21.60;52.40
6540;DHT22;50344;51.142;16.892;2023-11-19T12:08:05;21.60;52.20
6540;DHT22;50344;51.142;16.892;2023-11-19T12:10:36;21.50;51.90
6540;DHT22;50344;51.142;16.892;2023-11-19T12:13:04;21.60;52.20
6540;DHT22;50344;51.142;16.892;2023-11-19T12:15:33;21.50;51.90
6540;DHT22;50344;51.142;16.892;2023-11-19T12:18:19;21.60;52.00
6540;DHT22;50344;51.142;16.892;2023-11-19T12:20:45;21.60;52.30
6540;DHT22;50344;51.142;16.892;2023-11-19T12:23:10;21.60;52.70
6540;DHT22;50344;51.142;16.892;2023-11-19T12:25:36;21.60;52.00
6540;DHT22;50344;51.142;16.892;2023-11-19T12:28:02;21.60;52.20
6540;DHT22;50344;51.142;16.892;2023-11-19T12:30:29;21.50;52.10
6540;DHT22;50344;51.142;16.892;2023-11-19T12:32:55;21.60;52.20
6540;DHT22;50344;51.142;16.892;2023-11-19T12:35:21;21.60;52.20
6540;DHT22;50344;51.142;16.892;2023-11-19T12:37:47;21.60;52.00
6540;DHT22;50344;51.142;16.892;2023-11-19T12:40:14;21.60;52.10
6540;DHT22;50344;51.142;16.892;2023-11-19T12:42:40;21.60;53.10
6540;DHT22;50344;51.142;16.892;2023-11-19T12:45:06;21.60;53.30
6540;DHT22;50344;51.142;16.892;2023-11-19T12:47:33;21.50;53.80
6540;DHT22;50344;51.142;16.892;2023-11-19T12:49:59;21.60;54.30
6540;DHT22;50344;51.142;16.892;2023-11-19T12:52:24;21.60;54.20
6540;DHT22;50344;51.142;16.892;2023-11-19T12:54:50;21.60;54.10
6540;DHT22;50344;51.142;16.892;2023-11-19T12:57:16;21.60;54.10
6540;DHT22;50344;51.142;16.892;2023-11-19T12:59:54;21.60;54.10
6540;DHT22;50344;51.142;16.892;2023-11-19T13:02:19;21.70;54.20
6540;DHT22;50344;51.142;16.892;2023-11-19T13:04:45;21.70;54.00
6540;DHT22;50344;51.142;16.892;2023-11-19T13:07:11;21.70;54.00
6540;DHT22;50344;51.142;16.892;2023-11-19T13:09:37;21.70;54.00
6540;DHT22;50344;51.142;16.892;2023-11-19T13:12:11;21.70;54.00
6540;DHT22;50344;51.142;16.892;2023-11-19T13:14:37;21.70;53.70
6540;DHT22;50344;51.142;16.892;2023-11-19T13:17:07;21.70;53.30
6540;DHT22;50344;51.142;16.892;2023-11-19T13:19:33;21.70;53.60
6540;DHT22;50344;51.142;16.892;2023-11-19T13:21:59;21.70;53.00
6540;DHT22;50344;51.142;16.892;2023-11-19T13:24:24;21.60;52.50
6540;DHT22;50344;51.142;16.892;2023-11-19T13:26:50;21.60;52.50
6540;DHT22;50344;51.142;16.892;2023-11-19T13:29:15;21.60;52.20
6540;DHT22;50344;51.142;16.892;2023-11-19T13:31:41;21.60;52.10
6540;DHT22;50344;51.142;16.892;2023-11-19T13:34:06;21.60;52.10
6540;DHT22;50344;51.142;16.892;2023-11-19T13:36:33;21.70;52.30
6540;DHT22;50344;51.142;16.892;2023-11-19T13:38:59;21.60;52.10
6540;DHT22;50344;51.142;16.892;2023-11-19T13:41:25;21.60;52.10
6540;DHT22;50344;51.142;16.892;2023-11-19T13:43:50;21.60;52.10
6540;DHT22;50344;51.142;16.892;2023-11-19T13:46:16;21.60;52.10
6540;DHT22;50344;51.142;16.892;2023-11-19T13:48:41;21.70;52.10
6540;DHT22;50344;51.142;16.892;2023-11-19T13:51:07;21.60;52.10
6540;DHT22;50344;51.142;16.892;2023-11-19T13:53:35;21.60;52.00
6540;DHT22;50344;51.142;16.892;2023-11-19T13:56:01;21.70;52.00
6540;DHT22;50344;51.142;16.892;2023-11-19T13:58:27;21.70;52.10
6540;DHT22;50344;51.142;16.892;2023-11-19T14:00:52;21.70;51.90
6540;DHT22;50344;51.142;16.892;2023-11-19T14:03:18;21.70;51.90
6540;DHT22;50344;51.142;16.892;2023-11-19T14:05:43;21.70;51.90
6540;DHT22;50344;51.142;16.892;2023-11-19T14:08:09;21.70;51.80
6540;DHT22;50344;51.142;16.892;2023-11-19T14:10:37;21.70;51.80
6540;DHT22;50344;51.142;16.892;2023-11-19T14:13:04;21.70;51.90
6540;DHT22;50344;51.142;16.892;2023-11-19T14:15:30;21.70;51.80
6540;DHT22;50344;51.142;16.892;2023-11-19T14:17:55;21.70;51.70
6540;DHT22;50344;51.142;16.892;2023-11-19T14:20:21;21.60;51.70
6540;DHT22;50344;51.142;16.892;2023-11-19T14:22:46;21.60;51.50
6540;DHT22;50344;51.142;16.892;2023-11-19T14:25:14;21.60;51.40
6540;DHT22;50344;51.142;16.892;2023-11-19T14:27:40;21.60;51.40
6540;DHT22;50344;51.142;16.892;2023-11-19T14:30:06;21.60;51.50
6540;DHT22;50344;51.142;16.892;2023-11-19T14:32:32;21.60;51.20
6540;DHT22;50344;51.142;16.892;2023-11-19T14:34:58;21.60;51.70
6540;DHT22;50344;51.142;16.892;2023-11-19T14:37:24;21.60;51.60
6540;DHT22;50344;51.142;16.892;2023-11-19T14:39:49;21.60;51.40
6540;DHT22;50344;51.142;16.892;2023-11-19T14:42:16;21.50;51.30
6540;DHT22;50344;51.142;16.892;2023-11-19T14:44:42;21.50;51.30
6540;DHT22;50344;51.142;16.892;2023-11-19T14:47:07;21.50;51.40
6540;DHT22;50344;51.142;16.892;2023-11-19T14:49:36;21.50;51.30
6540;DHT22;50344;51.142;16.892;2023-11-19T14:52:03;21.50;50.50
6540;DHT22;50344;51.142;16.892;2023-11-19T14:54:28;21.50;51.30
6540;DHT22;50344;51.142;16.892;2023-11-19T14:56:54;21.50;51.30
6540;DHT22;50344;51.142;16.892;2023-11-19T14:59:19;21.50;51.30
6540;DHT22;50344;51.142;16.892;2023-11-19T15:01:45;21.50;51.20
6540;DHT22;50344;51.142;16.892;2023-11-19T15:04:10;21.50;51.20
6540;DHT22;50344;51.142;16.892;2023-11-19T15:06:37;21.50;51.20
6540;DHT22;50344;51.142;16.892;2023-11-19T15:09:03;21.50;51.30
6540;DHT22;50344;51.142;16.892;2023-11-19T15:11:28;21.50;51.20
6540;DHT22;50344;51.142;16.892;2023-11-19T15:13:54;21.50;51.10
6540;DHT22;50344;51.142;16.892;2023-11-19T15:16:20;21.50;51.10
6540;DHT22;50344;51.142;16.892;2023-11-19T15:18:51;21.50;51.10
6540;DHT22;50344;51.142;16.892;2023-11-19T15:21:17;21.50;51.20
6540;DHT22;50344;51.142;16.892;2023-11-19T15:23:43;21.50;51.20
6540;DHT22;50344;51.142;16.892;2023-11-19T15:26:08;21.50;51.10
6540;DHT22;50344;51.142;16.892;2023-11-19T15:28:36;21.50;51.00
6540;DHT22;50344;51.142;16.892;2023-11-19T15:31:01;21.50;51.00
6540;DHT22;50344;51.142;16.892;2023-11-19T15:33:28;21.50;51.10
6540;DHT22;50344;51.142;16.892;2023-11-19T15:35:53;21.50;50.90
6540;DHT22;50344;51.142;16.892;2023-11-19T15:38:19;21.50;50.90
6540;DHT22;50344;51.142;16.892;2023-11-19T15:40:44;22.00;51.50
6540;DHT22;50344;51.142;16.892;2023-11-19T15:43:10;21.50;51.00
6540;DHT22;50344;51.142;16.892;2023-11-19T15:45:36;21.50;51.00
6540;DHT22;50344;51.142;16.892;2023-11-19T15:48:04;21.40;50.90